createdAt,value
2022-09-23T00:01:15.191Z,10.22
2022-09-23T00:03:45.532Z,10.16
2022-09-23T00:06:16.221Z,10.12
2022-09-23T00:08:44.128Z,10.08
2022-09-23T00:11:26.103Z,10.01
2022-09-23T00:13:55.711Z,9.94
2022-09-23T00:16:32.687Z,9.96
2022-09-23T00:19:03.464Z,9.90
2022-09-23T00:21:30.615Z,9.90
2022-09-23T00:23:57.357Z,9.83
2022-09-23T00:26:24.156Z,9.76
2022-09-23T00:28:51.771Z,9.72
2022-09-23T00:31:24.720Z,9.68
2022-09-23T00:33:59.129Z,9.67
2022-09-23T00:36:26.791Z,9.67
2022-09-23T00:38:54.448Z,9.62
2022-09-23T00:41:21.816Z,9.58
2022-09-23T00:43:55.080Z,9.56
2022-09-23T00:46:26.501Z,9.48
2022-09-23T00:49:02.859Z,9.43
2022-09-23T00:51:37.903Z,9.43
2022-09-23T00:54:06.487Z,9.41
2022-09-23T00:56:35.458Z,9.34
2022-09-23T00:59:03.027Z,9.30
2022-09-23T01:01:30.000Z,9.27
2022-09-23T01:03:57.651Z,9.23
2022-09-23T01:06:25.190Z,9.16
2022-09-23T01:08:52.692Z,9.17
2022-09-23T01:11:44.697Z,9.15
2022-09-23T01:14:26.547Z,9.15
2022-09-23T01:16:53.168Z,9.12
2022-09-23T01:19:37.080Z,9.05
2022-09-23T01:22:14.311Z,9.08
2022-09-23T01:24:47.194Z,8.99
2022-09-23T01:27:27.548Z,8.92
2022-09-23T01:30:02.145Z,8.93
2022-09-23T01:32:56.269Z,8.87
2022-09-23T01:35:44.245Z,8.86
2022-09-23T01:38:10.845Z,8.80
2022-09-23T01:41:03.404Z,8.74
2022-09-23T01:43:57.868Z,8.72
2022-09-23T01:46:32.104Z,8.70
2022-09-23T01:49:34.553Z,8.65
2022-09-23T01:52:10.089Z,8.66
2022-09-23T01:54:46.398Z,8.69
2022-09-23T01:57:19.355Z,8.66
2022-09-23T01:59:59.480Z,8.56
2022-09-23T02:02:34.502Z,8.53
2022-09-23T02:05:34.669Z,8.48
2022-09-23T02:08:07.200Z,8.47
2022-09-23T02:10:44.927Z,8.42
2022-09-23T02:13:19.399Z,8.38
2022-09-23T02:15:52.957Z,8.34
2022-09-23T02:18:25.090Z,8.38
2022-09-23T02:20:58.657Z,8.37
2022-09-23T02:23:31.082Z,8.38
2022-09-23T02:26:35.448Z,8.41
2022-09-23T02:29:18.506Z,8.40
2022-09-23T02:31:49.686Z,8.39
2022-09-23T02:35:07.685Z,8.34
2022-09-23T02:38:00.625Z,8.32
2022-09-23T02:40:38.887Z,8.27
2022-09-23T02:43:08.457Z,8.22
2022-09-23T02:45:37.959Z,8.19
2022-09-23T02:48:14.743Z,8.12
2022-09-23T02:50:41.580Z,8.10
2022-09-23T02:53:08.733Z,8.07
2022-09-23T02:55:35.467Z,8.00
2022-09-23T02:58:03.595Z,7.98
2022-09-23T03:00:57.538Z,7.92
2022-09-23T03:03:54.223Z,7.94
2022-09-23T03:06:39.057Z,7.88
2022-09-23T03:09:05.722Z,7.85
2022-09-23T03:11:38.422Z,7.81
2022-09-23T03:14:22.052Z,7.80
2022-09-23T03:17:20.102Z,7.73
2022-09-23T03:19:55.367Z,7.66
2022-09-23T03:22:29.830Z,7.61
2022-09-23T03:25:02.561Z,7.60
2022-09-23T03:27:33.022Z,7.57
2022-09-23T03:30:01.131Z,7.54
2022-09-23T03:32:29.261Z,7.50
2022-09-23T03:34:58.997Z,7.45
2022-09-23T03:37:44.637Z,7.46
2022-09-23T03:40:24.049Z,7.43
2022-09-23T03:42:51.985Z,7.39
2022-09-23T03:45:23.880Z,7.32
2022-09-23T03:47:50.672Z,7.34
2022-09-23T03:50:17.768Z,7.31
2022-09-23T03:52:44.944Z,7.29
2022-09-23T03:55:11.929Z,7.24
2022-09-23T03:57:39.029Z,7.22
2022-09-23T04:00:07.488Z,7.23
2022-09-23T04:02:34.594Z,7.22
2022-09-23T04:05:01.501Z,7.23
2022-09-23T04:07:28.338Z,7.20
2022-09-23T04:09:55.878Z,7.16
2022-09-23T04:12:23.048Z,7.12
2022-09-23T04:14:49.783Z,7.11
2022-09-23T04:17:17.235Z,7.07
2022-09-23T04:19:45.157Z,7.03
2022-09-23T04:22:11.929Z,7.02
2022-09-23T04:24:38.826Z,7.00
2022-09-23T04:27:06.121Z,6.98
2022-09-23T04:29:33.001Z,6.92
2022-09-23T04:31:59.946Z,6.88
2022-09-23T04:34:27.460Z,6.87
2022-09-23T04:36:54.224Z,6.83
2022-09-23T04:39:20.946Z,6.82
2022-09-23T04:41:47.740Z,6.81
2022-09-23T04:44:14.993Z,6.77
2022-09-23T04:46:43.857Z,6.75
2022-09-23T04:49:10.874Z,6.72
2022-09-23T04:51:37.746Z,6.71
2022-09-23T04:54:04.724Z,6.65
2022-09-23T04:56:34.238Z,6.61
2022-09-23T04:59:01.854Z,6.54
2022-09-23T05:01:31.297Z,6.53
2022-09-23T05:04:05.347Z,6.53
2022-09-23T05:06:37.299Z,6.53
2022-09-23T05:09:06.628Z,6.52
2022-09-23T05:11:34.436Z,6.46
2022-09-23T05:14:01.192Z,6.50
2022-09-23T05:16:28.027Z,6.54
2022-09-23T05:18:54.880Z,6.54
2022-09-23T05:21:23.672Z,6.49
2022-09-23T05:23:55.563Z,6.45
2022-09-23T05:26:27.891Z,6.49
2022-09-23T05:28:55.270Z,6.54
2022-09-23T05:31:25.058Z,6.54
2022-09-23T05:33:55.186Z,6.58
2022-09-23T05:36:23.142Z,6.58
2022-09-23T05:38:51.425Z,6.57
2022-09-23T05:41:23.208Z,6.60
2022-09-23T05:43:51.833Z,6.64
2022-09-23T05:46:28.041Z,6.60
2022-09-23T05:48:59.970Z,6.64
2022-09-23T05:51:31.088Z,6.62
2022-09-23T05:53:59.614Z,6.66
2022-09-23T05:56:28.417Z,6.70
2022-09-23T05:58:58.561Z,6.72
2022-09-23T06:01:28.079Z,6.71
2022-09-23T06:03:56.985Z,6.76
2022-09-23T06:06:33.095Z,6.83
2022-09-23T06:09:01.091Z,6.88
2022-09-23T06:11:30.941Z,6.93
2022-09-23T06:14:02.555Z,6.95
2022-09-23T06:16:32.130Z,6.98
2022-09-23T06:19:05.112Z,7.02
2022-09-23T06:21:34.828Z,7.04
2022-09-23T06:24:02.967Z,7.09
2022-09-23T06:26:32.665Z,7.11
2022-09-23T06:29:01.555Z,7.15
2022-09-23T06:31:29.092Z,7.19
2022-09-23T06:34:07.908Z,7.24
2022-09-23T06:36:44.079Z,7.28
2022-09-23T06:39:12.917Z,7.33
2022-09-23T06:41:39.795Z,7.38
2022-09-23T06:44:06.653Z,7.42
2022-09-23T06:46:33.708Z,7.48
2022-09-23T06:49:03.258Z,7.54
2022-09-23T06:51:30.038Z,7.60
2022-09-23T06:53:56.993Z,7.66
2022-09-23T06:56:24.796Z,7.69
2022-09-23T06:58:52.554Z,7.75
2022-09-23T07:01:19.835Z,7.86
2022-09-23T07:03:48.484Z,7.93
2022-09-23T07:06:17.185Z,7.97
2022-09-23T07:08:47.158Z,8.05
2022-09-23T07:11:15.559Z,8.12
2022-09-23T07:13:42.905Z,8.20
2022-09-23T07:16:11.219Z,8.26
2022-09-23T07:18:38.955Z,8.31
2022-09-23T07:21:15.444Z,8.41
2022-09-23T07:23:43.499Z,8.47
2022-09-23T07:26:10.920Z,8.53
2022-09-23T07:28:38.425Z,8.60
2022-09-23T07:31:24.557Z,8.66
2022-09-23T07:34:01.044Z,8.73
2022-09-23T07:36:29.176Z,8.80
2022-09-23T07:39:00.632Z,8.86
2022-09-23T07:41:28.992Z,8.92
2022-09-23T07:43:58.819Z,8.99
2022-09-23T07:46:28.295Z,9.05
2022-09-23T07:48:55.874Z,9.13
2022-09-23T07:51:36.039Z,9.20
2022-09-23T07:54:05.485Z,9.26
2022-09-23T07:56:32.370Z,9.34
2022-09-23T07:59:03.852Z,9.40
2022-09-23T08:01:38.299Z,9.48
2022-09-23T08:04:15.929Z,9.58
2022-09-23T08:06:44.296Z,9.66
2022-09-23T08:09:11.985Z,9.72
2022-09-23T08:11:42.436Z,9.79
2022-09-23T08:14:13.963Z,9.85
2022-09-23T08:16:41.967Z,9.92
2022-09-23T08:19:08.815Z,10.00
2022-09-23T08:21:35.844Z,10.08
2022-09-23T08:24:02.765Z,10.16
2022-09-23T08:26:29.565Z,10.24
2022-09-23T08:28:56.601Z,10.32
2022-09-23T08:31:24.060Z,10.40
2022-09-23T08:33:55.773Z,10.48
2022-09-23T08:36:23.290Z,10.56
2022-09-23T08:38:50.073Z,10.63
2022-09-23T08:41:25.398Z,10.71
2022-09-23T08:44:02.119Z,10.77
2022-09-23T08:46:40.105Z,10.87
2022-09-23T08:49:08.768Z,10.95
2022-09-23T08:51:41.203Z,11.01
2022-09-23T08:54:11.185Z,11.09
2022-09-23T08:56:39.023Z,11.14
2022-09-23T08:59:13.848Z,11.20
2022-09-23T09:01:43.775Z,11.26
2022-09-23T09:04:32.380Z,11.34
2022-09-23T09:07:34.861Z,11.44
2022-09-23T09:10:00.622Z,11.54
2022-09-23T09:12:38.387Z,11.64
2022-09-23T09:15:13.148Z,11.73
2022-09-23T09:17:56.725Z,11.80
2022-09-23T09:20:35.262Z,11.87
2022-09-23T09:23:20.530Z,11.94
2022-09-23T09:25:50.248Z,12.04
2022-09-23T09:28:35.890Z,12.16
2022-09-23T09:31:18.489Z,12.22
2022-09-23T09:33:56.548Z,12.28
2022-09-23T09:36:23.619Z,12.33
2022-09-23T09:38:51.310Z,12.40
2022-09-23T09:41:21.650Z,12.46
2022-09-23T09:43:53.468Z,12.56
2022-09-23T09:46:23.154Z,12.66
2022-09-23T09:48:59.951Z,12.71
2022-09-23T09:51:29.437Z,12.78
2022-09-23T09:54:17.482Z,12.86
2022-09-23T09:56:45.099Z,12.95
2022-09-23T09:59:21.122Z,13.04
2022-09-23T10:01:48.039Z,13.13
2022-09-23T10:04:24.985Z,13.22
2022-09-23T10:07:12.372Z,13.29
2022-09-23T10:09:47.569Z,13.36
2022-09-23T10:12:21.608Z,13.46
2022-09-23T10:14:51.397Z,13.56
2022-09-23T10:17:36.230Z,13.64
2022-09-23T10:20:08.418Z,13.70
2022-09-23T10:22:42.915Z,13.79
2022-09-23T10:25:19.188Z,13.87
2022-09-23T10:27:46.253Z,13.96
2022-09-23T10:30:21.772Z,14.04
2022-09-23T10:32:50.856Z,14.15
2022-09-23T10:35:22.038Z,14.26
2022-09-23T10:37:54.371Z,14.34
2022-09-23T10:40:49.333Z,14.41
2022-09-23T10:44:04.205Z,14.50
2022-09-23T10:46:46.036Z,14.58
2022-09-23T10:49:43.120Z,14.58
2022-09-23T10:52:51.837Z,14.60
2022-09-23T10:55:37.797Z,14.62
2022-09-23T10:58:38.724Z,14.67
2022-09-23T11:01:29.764Z,14.78
2022-09-23T11:04:11.907Z,14.87
2022-09-23T11:07:07.439Z,14.96
2022-09-23T11:09:45.991Z,15.05
2022-09-23T11:12:32.010Z,15.15
2022-09-23T11:15:18.770Z,15.23
2022-09-23T11:18:06.388Z,15.31
2022-09-23T11:20:58.018Z,15.39
2022-09-23T11:23:52.267Z,15.49
2022-09-23T11:26:37.927Z,15.62
2022-09-23T11:29:32.086Z,15.74
2022-09-23T11:32:29.529Z,15.86
2022-09-23T11:35:12.764Z,16.02
2022-09-23T11:37:47.225Z,16.11
2022-09-23T11:40:25.314Z,16.18
2022-09-23T11:43:16.547Z,16.26
2022-09-23T11:46:05.218Z,16.33
2022-09-23T11:48:47.462Z,16.35
2022-09-23T11:51:29.862Z,16.35
2022-09-23T11:54:03.279Z,16.34
2022-09-23T11:56:47.445Z,16.30
2022-09-23T11:59:40.265Z,16.30
2022-09-23T12:03:00.175Z,16.29
2022-09-23T12:05:39.410Z,16.30
2022-09-23T12:08:29.147Z,16.32
2022-09-23T12:11:06.577Z,16.33
2022-09-23T12:13:59.371Z,16.33
2022-09-23T12:16:44.826Z,16.33
2022-09-23T12:19:30.229Z,16.32
2022-09-23T12:22:17.908Z,16.30
2022-09-23T12:24:59.317Z,16.26
2022-09-23T12:27:29.089Z,16.25
2022-09-23T12:30:02.549Z,16.28
2022-09-23T12:32:30.296Z,16.31
2022-09-23T12:34:57.172Z,16.33
2022-09-23T12:37:36.197Z,16.38
2022-09-23T12:40:20.763Z,16.47
2022-09-23T12:42:49.474Z,16.53
2022-09-23T12:45:34.719Z,16.56
2022-09-23T12:48:17.933Z,16.65
2022-09-23T12:50:54.687Z,16.73
2022-09-23T12:53:33.474Z,16.75
2022-09-23T12:56:22.746Z,16.80
2022-09-23T12:58:49.533Z,16.84
2022-09-23T13:01:18.989Z,16.90
2022-09-23T13:04:06.598Z,16.93
2022-09-23T13:06:41.096Z,17.01
2022-09-23T13:09:17.025Z,17.12
2022-09-23T13:11:48.054Z,17.16
2022-09-23T13:14:27.267Z,17.21
2022-09-23T13:16:58.345Z,17.26
2022-09-23T13:19:28.524Z,17.29
2022-09-23T13:22:09.158Z,17.34
2022-09-23T13:24:40.609Z,17.40
2022-09-23T13:27:21.678Z,17.44
2022-09-23T13:30:04.584Z,17.50
2022-09-23T13:32:35.722Z,17.54
2022-09-23T13:35:15.768Z,17.59
2022-09-23T13:37:49.994Z,17.61
2022-09-23T13:40:27.286Z,17.65
2022-09-23T13:42:54.813Z,17.69
2022-09-23T13:45:24.310Z,17.73
2022-09-23T13:47:54.271Z,17.75
2022-09-23T13:50:24.882Z,17.80
2022-09-23T13:53:01.203Z,17.85
2022-09-23T13:55:37.604Z,17.90
2022-09-23T13:58:34.951Z,17.93
2022-09-23T14:01:02.614Z,17.98
2022-09-23T14:03:37.243Z,18.01
2022-09-23T14:06:08.695Z,18.03
2022-09-23T14:08:36.025Z,18.04
2022-09-23T14:11:04.071Z,18.05
2022-09-23T14:13:34.050Z,18.06
2022-09-23T14:16:04.168Z,18.09
2022-09-23T14:18:40.535Z,18.13
2022-09-23T14:21:28.499Z,18.14
2022-09-23T14:23:55.821Z,18.18
2022-09-23T14:26:24.223Z,18.22
2022-09-23T14:28:51.912Z,18.23
2022-09-23T14:31:19.088Z,18.22
2022-09-23T14:33:46.963Z,18.25
2022-09-23T14:36:36.421Z,18.26
2022-09-23T14:39:09.477Z,18.27
2022-09-23T14:41:40.237Z,18.26
2022-09-23T14:44:18.211Z,18.27
2022-09-23T14:47:00.113Z,18.27
2022-09-23T14:49:27.459Z,18.28
2022-09-23T14:52:06.954Z,18.29
2022-09-23T14:54:39.851Z,18.30
2022-09-23T14:57:30.094Z,18.29
2022-09-23T15:00:09.298Z,18.26
2022-09-23T15:02:42.890Z,18.25
2022-09-23T15:05:30.207Z,18.25
2022-09-23T15:08:01.119Z,18.26
2022-09-23T15:10:32.396Z,18.26
2022-09-23T15:13:25.334Z,18.26
2022-09-23T15:15:53.810Z,18.26
2022-09-23T15:18:30.540Z,18.28
2022-09-23T15:21:14.633Z,18.28
2022-09-23T15:23:41.593Z,18.29
2022-09-23T15:26:15.474Z,18.29
2022-09-23T15:28:43.175Z,18.28
2022-09-23T15:31:17.825Z,18.28
2022-09-23T15:33:46.450Z,18.28
2022-09-23T15:36:22.975Z,18.27
2022-09-23T15:38:49.984Z,18.27
2022-09-23T15:41:19.542Z,18.27
2022-09-23T15:43:47.153Z,18.26
2022-09-23T15:46:19.210Z,18.23
2022-09-23T15:49:06.714Z,18.21
2022-09-23T15:51:34.633Z,18.18
2022-09-23T15:54:01.416Z,18.14
2022-09-23T15:56:28.383Z,18.10
2022-09-23T15:58:55.125Z,18.08
2022-09-23T16:01:30.738Z,18.06
2022-09-23T16:03:57.588Z,18.03
2022-09-23T16:06:27.824Z,17.99
2022-09-23T16:08:55.646Z,17.97
2022-09-23T16:11:26.795Z,17.94
2022-09-23T16:13:53.620Z,17.91
2022-09-23T16:16:23.337Z,17.87
2022-09-23T16:18:51.471Z,17.84
2022-09-23T16:21:21.324Z,17.79
2022-09-23T16:23:51.328Z,17.75
2022-09-23T16:26:24.352Z,17.71
2022-09-23T16:28:53.209Z,17.65
2022-09-23T16:31:22.402Z,17.60
2022-09-23T16:33:51.371Z,17.54
2022-09-23T16:36:41.168Z,17.48
2022-09-23T16:39:10.988Z,17.41
2022-09-23T16:41:38.107Z,17.35
2022-09-23T16:44:07.535Z,17.28
2022-09-23T16:46:35.170Z,17.19
2022-09-23T16:49:02.184Z,17.12
2022-09-23T16:51:38.596Z,17.06
2022-09-23T16:54:14.687Z,16.98
2022-09-23T16:56:44.358Z,16.91
2022-09-23T16:59:16.042Z,16.84
2022-09-23T17:02:01.422Z,16.75
2022-09-23T17:04:28.430Z,16.72
2022-09-23T17:06:57.914Z,16.67
2022-09-23T17:09:27.912Z,16.57
2022-09-23T17:12:19.730Z,16.48
2022-09-23T17:14:46.476Z,16.41
2022-09-23T17:17:13.250Z,16.33
2022-09-23T17:19:41.495Z,16.25
2022-09-23T17:22:08.375Z,16.18
2022-09-23T17:24:35.106Z,16.14
2022-09-23T17:27:01.859Z,16.09
2022-09-23T17:29:29.206Z,16.00
2022-09-23T17:31:56.180Z,15.93
2022-09-23T17:34:24.077Z,15.85
2022-09-23T17:36:50.842Z,15.81
2022-09-23T17:39:17.765Z,15.76
2022-09-23T17:41:45.494Z,15.69
2022-09-23T17:44:12.419Z,15.64
2022-09-23T17:46:39.160Z,15.60
2022-09-23T17:49:06.873Z,15.54
2022-09-23T17:51:33.691Z,15.48
2022-09-23T17:54:00.454Z,15.40
2022-09-23T17:56:29.982Z,15.37
2022-09-23T17:59:00.504Z,15.32
2022-09-23T18:01:27.624Z,15.25
2022-09-23T18:03:56.368Z,15.18
2022-09-23T18:06:25.052Z,15.11
2022-09-23T18:08:52.461Z,15.08
2022-09-23T18:11:27.684Z,15.04
2022-09-23T18:13:58.523Z,14.96
2022-09-23T18:16:31.334Z,14.92
2022-09-23T18:19:02.795Z,14.85
2022-09-23T18:21:37.772Z,14.82
2022-09-23T18:24:28.597Z,14.75
2022-09-23T18:26:51.475Z,14.70
2022-09-23T18:29:19.671Z,14.67
2022-09-23T18:31:47.477Z,14.60
2022-09-23T18:34:16.880Z,14.52
2022-09-23T18:36:44.638Z,14.46
2022-09-23T18:39:11.742Z,14.43
2022-09-23T18:41:38.562Z,14.37
2022-09-23T18:44:05.668Z,14.29
2022-09-23T18:46:32.669Z,14.26
2022-09-23T18:49:18.796Z,14.23
2022-09-23T18:51:54.496Z,14.22
2022-09-23T18:54:25.539Z,14.17
2022-09-23T18:56:55.383Z,14.10
2022-09-23T18:59:26.260Z,14.05
2022-09-23T19:01:56.496Z,14.03
2022-09-23T19:04:25.573Z,13.97
2022-09-23T19:06:53.702Z,13.90
2022-09-23T19:09:20.496Z,13.87
2022-09-23T19:11:51.692Z,13.81
2022-09-23T19:14:18.551Z,13.77
2022-09-23T19:16:45.372Z,13.72
2022-09-23T19:19:12.117Z,13.66
2022-09-23T19:21:38.931Z,13.61
2022-09-23T19:24:07.419Z,13.59
2022-09-23T19:26:40.302Z,13.55
2022-09-23T19:29:09.000Z,13.51
2022-09-23T19:31:40.356Z,13.47
2022-09-23T19:34:12.632Z,13.43
2022-09-23T19:36:42.662Z,13.38
2022-09-23T19:39:16.324Z,13.35
2022-09-23T19:41:43.195Z,13.32
2022-09-23T19:44:10.089Z,13.28
2022-09-23T19:46:39.718Z,13.23
2022-09-23T19:49:07.792Z,13.19
2022-09-23T19:51:34.924Z,13.17
2022-09-23T19:54:03.328Z,13.13
2022-09-23T19:56:32.006Z,13.12
2022-09-23T19:58:59.694Z,13.13
2022-09-23T20:01:29.400Z,13.09
2022-09-23T20:03:56.866Z,13.07
2022-09-23T20:06:23.689Z,13.07
2022-09-23T20:08:50.507Z,13.05
2022-09-23T20:11:27.561Z,13.01
2022-09-23T20:14:01.119Z,12.96
2022-09-23T20:16:32.335Z,12.91
2022-09-23T20:19:00.410Z,12.91
2022-09-23T20:21:28.432Z,12.84
2022-09-23T20:23:55.830Z,12.82
2022-09-23T20:26:41.336Z,12.77
2022-09-23T20:29:09.005Z,12.73
2022-09-23T20:31:35.909Z,12.75
2022-09-23T20:34:05.722Z,12.66
2022-09-23T20:36:34.076Z,12.66
2022-09-23T20:39:03.026Z,12.59
2022-09-23T20:41:31.506Z,12.59
2022-09-23T20:44:01.491Z,12.59
2022-09-23T20:46:29.371Z,12.62
2022-09-23T20:48:56.967Z,12.57
2022-09-23T20:51:27.950Z,12.60
2022-09-23T20:53:54.728Z,12.51
2022-09-23T20:56:21.818Z,12.48
2022-09-23T20:58:50.443Z,12.48
2022-09-23T21:01:18.242Z,12.41
2022-09-23T21:03:47.845Z,12.39
2022-09-23T21:06:15.985Z,12.38
2022-09-23T21:08:44.482Z,12.35
2022-09-23T21:11:15.047Z,12.35
2022-09-23T21:13:50.423Z,12.31
2022-09-23T21:16:19.928Z,12.22
2022-09-23T21:18:48.127Z,12.18
2022-09-23T21:21:15.383Z,12.18
2022-09-23T21:23:43.431Z,12.13
2022-09-23T21:26:11.389Z,12.08
2022-09-23T21:28:40.261Z,12.07
2022-09-23T21:31:13.286Z,12.04
2022-09-23T21:33:40.321Z,12.00
2022-09-23T21:36:07.464Z,11.95
2022-09-23T21:38:35.954Z,11.95
2022-09-23T21:41:08.665Z,11.90
2022-09-23T21:43:38.568Z,11.91
2022-09-23T21:46:13.380Z,11.86
2022-09-23T21:48:41.979Z,11.85
2022-09-23T21:51:12.323Z,11.80
2022-09-23T21:53:40.388Z,11.81
2022-09-23T21:56:08.351Z,11.80
2022-09-23T21:58:36.946Z,11.75
2022-09-23T22:01:18.165Z,11.74
2022-09-23T22:03:50.670Z,11.70
2022-09-23T22:06:26.986Z,11.66
2022-09-23T22:08:59.155Z,11.63
2022-09-23T22:11:47.219Z,11.62
2022-09-23T22:14:15.364Z,11.57
2022-09-23T22:16:43.200Z,11.59
2022-09-23T22:19:12.605Z,11.57
2022-09-23T22:21:41.045Z,11.59
2022-09-23T22:24:10.049Z,11.55
2022-09-23T22:26:42.346Z,11.56
2022-09-23T22:29:30.280Z,11.53
2022-09-23T22:32:16.363Z,11.54
2022-09-23T22:34:51.468Z,11.52
2022-09-23T22:37:26.058Z,11.49
2022-09-23T22:39:53.771Z,11.46
2022-09-23T22:42:23.929Z,11.45
2022-09-23T22:44:51.367Z,11.45
2022-09-23T22:47:19.550Z,11.40
2022-09-23T22:49:46.922Z,11.38
2022-09-23T22:52:16.072Z,11.38
2022-09-23T22:54:43.378Z,11.37
2022-09-23T22:57:10.308Z,11.36
2022-09-23T22:59:39.622Z,11.35
2022-09-23T23:02:07.735Z,11.30
2022-09-23T23:04:34.825Z,11.28
2022-09-23T23:07:03.157Z,11.25
2022-09-23T23:09:29.905Z,11.25
2022-09-23T23:11:56.670Z,11.24
2022-09-23T23:14:23.394Z,11.22
2022-09-23T23:16:50.326Z,11.23
2022-09-23T23:19:19.270Z,11.26
2022-09-23T23:21:46.289Z,11.25
2022-09-23T23:24:15.965Z,11.24
2022-09-23T23:26:43.242Z,11.22
2022-09-23T23:29:12.199Z,11.18
2022-09-23T23:31:39.076Z,11.16
2022-09-23T23:34:08.385Z,11.15
2022-09-23T23:36:35.218Z,11.11
2022-09-23T23:39:02.415Z,11.12
2022-09-23T23:41:29.283Z,11.13
2022-09-23T23:43:58.944Z,11.11
2022-09-23T23:46:28.429Z,11.12
2022-09-23T23:48:56.301Z,11.08
2022-09-23T23:51:26.408Z,11.02
2022-09-23T23:53:54.057Z,11.04
2022-09-23T23:56:25.626Z,11.00
2022-09-23T23:58:57.395Z,10.99
